createdAt,value
2018-06-24T00:00:20.567Z,20.97
2018-06-24T00:01:20.400Z,20.94
2018-06-24T00:02:20.515Z,20.95
2018-06-24T00:03:20.658Z,20.94
2018-06-24T00:04:20.482Z,20.94
2018-06-24T00:05:20.386Z,20.95
2018-06-24T00:06:20.620Z,20.95
2018-06-24T00:07:20.595Z,20.94
2018-06-24T00:08:20.752Z,20.94
2018-06-24T00:09:20.515Z,20.89
2018-06-24T00:10:20.530Z,20.92
2018-06-24T00:11:20.571Z,20.92
2018-06-24T00:12:20.450Z,20.94
2018-06-24T00:13:20.701Z,20.91
2018-06-24T00:14:21.007Z,20.94
2018-06-24T00:15:20.693Z,20.94
2018-06-24T00:16:20.515Z,20.95
2018-06-24T00:17:20.465Z,20.94
2018-06-24T00:18:20.464Z,20.92
2018-06-24T00:19:20.366Z,20.92
2018-06-24T00:20:20.432Z,20.94
2018-06-24T00:21:20.421Z,20.94
2018-06-24T00:22:20.341Z,20.92
2018-06-24T00:23:20.371Z,20.94
2018-06-24T00:24:20.369Z,20.92
2018-06-24T00:25:20.440Z,20.94
2018-06-24T00:26:20.618Z,20.95
2018-06-24T00:27:20.467Z,20.92
2018-06-24T00:28:20.554Z,20.94
2018-06-24T00:29:20.434Z,20.94
2018-06-24T00:30:20.692Z,20.94
2018-06-24T00:31:20.465Z,20.92
2018-06-24T00:32:20.397Z,20.94
2018-06-24T00:33:20.729Z,20.92
2018-06-24T00:34:20.588Z,20.94
2018-06-24T00:35:20.912Z,20.92
2018-06-24T00:36:20.709Z,20.95
2018-06-24T00:37:20.409Z,20.92
2018-06-24T00:38:20.702Z,20.94
2018-06-24T00:39:20.430Z,20.94
2018-06-24T00:40:20.718Z,20.94
2018-06-24T00:41:20.481Z,20.89
2018-06-24T00:42:20.462Z,20.94
2018-06-24T00:43:20.614Z,20.91
2018-06-24T00:44:20.632Z,20.91
2018-06-24T00:45:20.444Z,20.91
2018-06-24T00:46:20.457Z,20.92
2018-06-24T00:47:20.491Z,20.91
2018-06-24T00:48:20.484Z,20.92
2018-06-24T00:49:20.538Z,20.91
2018-06-24T00:50:20.468Z,20.92
2018-06-24T00:51:20.611Z,20.91
2018-06-24T00:52:20.456Z,20.91
2018-06-24T00:53:20.331Z,20.91
2018-06-24T00:54:20.514Z,20.92
2018-06-24T00:55:20.363Z,20.91
2018-06-24T00:56:20.515Z,20.91
2018-06-24T00:57:20.433Z,20.92
2018-06-24T00:58:20.608Z,20.92
2018-06-24T00:59:20.605Z,20.91
2018-06-24T01:00:20.431Z,20.88
2018-06-24T01:01:20.506Z,20.88
2018-06-24T01:02:20.414Z,20.89
2018-06-24T01:03:20.537Z,20.91
2018-06-24T01:04:20.338Z,20.92
2018-06-24T01:05:20.551Z,20.89
2018-06-24T01:06:20.364Z,20.91
2018-06-24T01:07:20.851Z,20.91
2018-06-24T01:08:20.415Z,20.89
2018-06-24T01:09:20.505Z,20.91
2018-06-24T01:10:20.692Z,20.91
2018-06-24T01:11:20.648Z,20.89
2018-06-24T01:12:20.536Z,20.89
2018-06-24T01:13:20.315Z,20.89
2018-06-24T01:14:20.589Z,20.88
2018-06-24T01:15:20.455Z,20.87
2018-06-24T01:16:20.705Z,20.89
2018-06-24T01:17:20.375Z,20.88
2018-06-24T01:18:20.420Z,20.88
2018-06-24T01:19:20.696Z,20.88
2018-06-24T01:20:20.692Z,20.88
2018-06-24T01:21:20.358Z,20.88
2018-06-24T01:22:20.420Z,20.88
2018-06-24T01:23:20.391Z,20.87
2018-06-24T01:24:20.576Z,20.85
2018-06-24T01:25:20.437Z,20.87
2018-06-24T01:26:20.750Z,20.87
2018-06-24T01:27:20.420Z,20.87
2018-06-24T01:28:20.678Z,20.88
2018-06-24T01:29:20.489Z,20.88
2018-06-24T01:30:20.642Z,20.88
2018-06-24T01:31:20.340Z,20.88
2018-06-24T01:32:20.477Z,20.87
2018-06-24T01:33:20.516Z,20.89
2018-06-24T01:34:20.454Z,20.88
2018-06-24T01:35:20.483Z,20.88
2018-06-24T01:36:20.588Z,20.89
2018-06-24T01:37:20.432Z,20.88
2018-06-24T01:38:20.559Z,20.88
2018-06-24T01:39:20.356Z,20.88
2018-06-24T01:40:20.357Z,20.88
2018-06-24T01:41:20.534Z,20.88
2018-06-24T01:42:20.404Z,20.88
2018-06-24T01:43:20.497Z,20.87
2018-06-24T01:44:20.665Z,20.89
2018-06-24T01:45:20.495Z,20.88
2018-06-24T01:46:20.448Z,20.88
2018-06-24T01:47:20.545Z,20.87
2018-06-24T01:48:20.554Z,20.88
2018-06-24T01:49:20.462Z,20.88
2018-06-24T01:50:20.321Z,20.87
2018-06-24T01:51:20.412Z,20.88
2018-06-24T01:52:20.395Z,20.88
2018-06-24T01:53:20.539Z,20.88
2018-06-24T01:54:20.738Z,20.87
2018-06-24T01:55:20.383Z,20.85
2018-06-24T01:56:20.479Z,20.87
2018-06-24T01:57:20.458Z,20.88
2018-06-24T01:58:30.470Z,20.88
2018-06-24T01:59:20.545Z,20.84
2018-06-24T02:00:20.378Z,20.85
2018-06-24T02:01:20.441Z,20.88
2018-06-24T02:02:20.487Z,20.88
2018-06-24T02:03:20.563Z,20.88
2018-06-24T02:04:20.517Z,20.88
2018-06-24T02:05:20.515Z,20.88
2018-06-24T02:06:20.676Z,20.85
2018-06-24T02:07:20.420Z,20.89
2018-06-24T02:08:20.579Z,20.88
2018-06-24T02:09:20.497Z,20.88
2018-06-24T02:10:20.518Z,20.88
2018-06-24T02:11:20.581Z,20.85
2018-06-24T02:12:20.393Z,20.87
2018-06-24T02:13:20.661Z,20.87
2018-06-24T02:14:20.696Z,20.85
2018-06-24T02:15:20.529Z,20.89
2018-06-24T02:16:20.411Z,20.87
2018-06-24T02:17:20.602Z,20.88
2018-06-24T02:18:20.673Z,20.87
2018-06-24T02:19:20.697Z,20.85
2018-06-24T02:20:21.032Z,20.87
2018-06-24T02:21:20.592Z,20.85
2018-06-24T02:22:20.581Z,20.88
2018-06-24T02:23:20.505Z,20.84
2018-06-24T02:24:20.415Z,20.87
2018-06-24T02:25:20.440Z,20.85
2018-06-24T02:26:20.838Z,20.88
2018-06-24T02:27:20.513Z,20.85
2018-06-24T02:28:20.685Z,20.84
2018-06-24T02:29:20.362Z,20.85
2018-06-24T02:30:20.682Z,20.87
2018-06-24T02:31:20.507Z,20.87
2018-06-24T02:32:20.558Z,20.87
2018-06-24T02:33:20.540Z,20.87
2018-06-24T02:34:20.477Z,20.85
2018-06-24T02:35:20.740Z,20.87
2018-06-24T02:36:21.196Z,20.85
2018-06-24T02:37:20.388Z,20.84
2018-06-24T02:38:20.590Z,20.85
2018-06-24T02:39:20.434Z,20.85
2018-06-24T02:40:20.814Z,20.87
2018-06-24T02:41:20.422Z,20.84
2018-06-24T02:42:20.712Z,20.87
2018-06-24T02:43:20.347Z,20.85
2018-06-24T02:44:20.526Z,20.87
2018-06-24T02:45:20.716Z,20.87
2018-06-24T02:46:20.765Z,20.85
2018-06-24T02:47:20.685Z,20.81
2018-06-24T02:48:20.405Z,20.85
2018-06-24T02:49:20.489Z,20.82
2018-06-24T02:50:20.485Z,20.84
2018-06-24T02:51:20.545Z,20.84
2018-06-24T02:52:20.374Z,20.81
2018-06-24T02:53:20.486Z,20.84
2018-06-24T02:54:20.494Z,20.85
2018-06-24T02:55:20.389Z,20.84
2018-06-24T02:56:20.662Z,20.84
2018-06-24T02:57:20.705Z,20.82
2018-06-24T02:58:20.542Z,20.82
2018-06-24T02:59:20.412Z,20.84
2018-06-24T03:00:20.408Z,20.81
2018-06-24T03:01:20.385Z,20.84
2018-06-24T03:02:20.559Z,20.82
2018-06-24T03:03:20.495Z,20.82
2018-06-24T03:04:20.630Z,20.84
2018-06-24T03:05:20.430Z,20.84
2018-06-24T03:06:20.464Z,20.84
2018-06-24T03:07:20.412Z,20.84
2018-06-24T03:08:20.604Z,20.84
2018-06-24T03:09:20.529Z,20.82
2018-06-24T03:10:20.408Z,20.84
2018-06-24T03:11:20.512Z,20.82
2018-06-24T03:12:20.531Z,20.81
2018-06-24T03:13:20.354Z,20.82
2018-06-24T03:14:20.511Z,20.82
2018-06-24T03:15:20.554Z,20.81
2018-06-24T03:16:20.432Z,20.81
2018-06-24T03:17:20.471Z,20.82
2018-06-24T03:18:20.396Z,20.84
2018-06-24T03:19:20.271Z,20.82
2018-06-24T03:20:20.431Z,20.82
2018-06-24T03:21:20.476Z,20.82
2018-06-24T03:22:20.611Z,20.82
2018-06-24T03:23:20.631Z,20.81
2018-06-24T03:24:20.360Z,20.8
2018-06-24T03:25:20.472Z,20.81
2018-06-24T03:26:20.340Z,20.84
2018-06-24T03:27:20.531Z,20.8
2018-06-24T03:28:20.434Z,20.82
2018-06-24T03:29:20.710Z,20.81
2018-06-24T03:30:20.405Z,20.82
2018-06-24T03:31:20.411Z,20.81
2018-06-24T03:32:20.358Z,20.82
2018-06-24T03:33:20.435Z,20.84
2018-06-24T03:34:20.715Z,20.82
2018-06-24T03:35:20.513Z,20.82
2018-06-24T03:36:20.647Z,20.82
2018-06-24T03:37:20.302Z,20.82
2018-06-24T03:38:20.386Z,20.81
2018-06-24T03:39:20.388Z,20.82
2018-06-24T03:40:20.567Z,20.81
2018-06-24T03:41:20.562Z,20.78
2018-06-24T03:42:20.364Z,20.81
2018-06-24T03:43:20.572Z,20.81
2018-06-24T03:44:20.506Z,20.8
2018-06-24T03:45:20.545Z,20.77
2018-06-24T03:46:20.310Z,20.78
2018-06-24T03:47:20.340Z,20.77
2018-06-24T03:48:20.519Z,20.78
2018-06-24T03:49:20.465Z,20.78
2018-06-24T03:50:20.481Z,20.77
2018-06-24T03:51:20.683Z,20.78
2018-06-24T03:52:20.562Z,20.78
2018-06-24T03:53:20.528Z,20.81
2018-06-24T03:54:20.426Z,20.81
2018-06-24T03:55:20.329Z,20.78
2018-06-24T03:56:20.423Z,20.78
2018-06-24T03:57:20.600Z,20.8
2018-06-24T03:58:20.491Z,20.77
2018-06-24T03:59:20.716Z,20.81
2018-06-24T04:00:20.671Z,20.82
2018-06-24T04:01:20.427Z,20.81
2018-06-24T04:02:20.388Z,20.8
2018-06-24T04:03:20.440Z,20.78
2018-06-24T04:04:20.416Z,20.78
2018-06-24T04:05:20.620Z,20.81
2018-06-24T04:06:20.457Z,20.82
2018-06-24T04:07:20.670Z,20.81
2018-06-24T04:08:20.506Z,20.8
2018-06-24T04:09:20.432Z,20.78
2018-06-24T04:10:20.691Z,20.77
2018-06-24T04:11:20.591Z,20.8
2018-06-24T04:12:20.503Z,20.78
2018-06-24T04:13:20.325Z,20.78
2018-06-24T04:14:20.516Z,20.78
2018-06-24T04:15:20.354Z,20.81
2018-06-24T04:16:20.685Z,20.77
2018-06-24T04:17:20.558Z,20.77
2018-06-24T04:18:20.714Z,20.78
2018-06-24T04:19:20.520Z,20.8
2018-06-24T04:20:20.532Z,20.78
2018-06-24T04:21:20.398Z,20.78
2018-06-24T04:22:30.437Z,20.75
2018-06-24T04:23:20.567Z,20.78
2018-06-24T04:24:20.403Z,20.75
2018-06-24T04:25:20.539Z,20.78
2018-06-24T04:26:20.511Z,20.77
2018-06-24T04:27:20.384Z,20.75
2018-06-24T04:28:20.547Z,20.77
2018-06-24T04:29:20.494Z,20.78
2018-06-24T04:30:20.416Z,20.78
2018-06-24T04:31:20.366Z,20.78
2018-06-24T04:32:20.542Z,20.78
2018-06-24T04:33:20.376Z,20.74
2018-06-24T04:34:20.679Z,20.74
2018-06-24T04:35:20.476Z,20.75
2018-06-24T04:36:20.666Z,20.8
2018-06-24T04:37:20.416Z,20.75
2018-06-24T04:38:20.289Z,20.77
2018-06-24T04:39:20.625Z,20.77
2018-06-24T04:40:20.326Z,20.75
2018-06-24T04:41:20.553Z,20.74
2018-06-24T04:42:20.437Z,20.77
2018-06-24T04:43:20.496Z,20.78
2018-06-24T04:44:20.354Z,20.75
2018-06-24T04:45:20.682Z,20.77
2018-06-24T04:46:20.505Z,20.78
2018-06-24T04:47:20.477Z,20.74
2018-06-24T04:48:20.391Z,20.78
2018-06-24T04:49:20.331Z,20.75
2018-06-24T04:50:20.375Z,20.77
2018-06-24T04:51:20.602Z,20.75
2018-06-24T04:52:20.750Z,20.74
2018-06-24T04:53:20.304Z,20.74
2018-06-24T04:54:20.355Z,20.72
2018-06-24T04:55:20.417Z,20.77
2018-06-24T04:56:20.543Z,20.75
2018-06-24T04:57:20.411Z,20.74
2018-06-24T04:58:20.356Z,20.75
2018-06-24T04:59:20.495Z,20.72
2018-06-24T05:00:20.480Z,20.72
2018-06-24T05:01:20.684Z,20.72
2018-06-24T05:02:20.306Z,20.75
2018-06-24T05:03:20.474Z,20.72
2018-06-24T05:04:20.350Z,20.75
2018-06-24T05:05:20.556Z,20.77
2018-06-24T05:06:20.730Z,20.77
2018-06-24T05:07:20.495Z,20.75
2018-06-24T05:08:20.724Z,20.75
2018-06-24T05:09:20.566Z,20.77
2018-06-24T05:10:20.455Z,20.8
2018-06-24T05:11:20.330Z,20.77
2018-06-24T05:12:20.697Z,20.75
2018-06-24T05:13:20.430Z,20.78
2018-06-24T05:14:20.423Z,20.77
2018-06-24T05:15:20.560Z,20.77
2018-06-24T05:16:20.571Z,20.77
2018-06-24T05:17:20.551Z,20.77
2018-06-24T05:18:20.355Z,20.77
2018-06-24T05:19:20.291Z,20.75
2018-06-24T05:20:20.277Z,20.77
2018-06-24T05:21:20.533Z,20.8
2018-06-24T05:22:20.346Z,20.77
2018-06-24T05:23:20.404Z,20.74
2018-06-24T05:24:20.265Z,20.77
2018-06-24T05:25:20.621Z,20.75
2018-06-24T05:26:20.475Z,20.77
2018-06-24T05:27:20.536Z,20.77
2018-06-24T05:28:20.357Z,20.78
2018-06-24T05:29:20.382Z,20.72
2018-06-24T05:30:20.367Z,20.74
2018-06-24T05:31:20.503Z,20.77
2018-06-24T05:32:20.564Z,20.78
2018-06-24T05:33:20.367Z,20.78
2018-06-24T05:34:20.286Z,20.75
2018-06-24T05:35:20.412Z,20.78
2018-06-24T05:36:20.470Z,20.78
2018-06-24T05:37:20.474Z,20.78
2018-06-24T05:38:20.251Z,20.75
2018-06-24T05:39:20.457Z,20.75
2018-06-24T05:40:20.558Z,20.77
2018-06-24T05:41:20.634Z,20.77
2018-06-24T05:42:20.458Z,20.77
2018-06-24T05:43:20.390Z,20.77
2018-06-24T05:44:20.543Z,20.8
2018-06-24T05:45:20.344Z,20.78
2018-06-24T05:46:20.479Z,20.75
2018-06-24T05:47:20.333Z,20.78
2018-06-24T05:48:20.480Z,20.8
2018-06-24T05:49:20.304Z,20.75
2018-06-24T05:50:20.377Z,20.78
2018-06-24T05:51:20.442Z,20.77
2018-06-24T05:52:20.481Z,20.77
2018-06-24T05:53:20.317Z,20.75
2018-06-24T05:54:20.813Z,20.78
2018-06-24T05:55:20.757Z,20.77
2018-06-24T05:56:20.270Z,20.78
2018-06-24T05:57:20.269Z,20.77
2018-06-24T05:58:20.484Z,20.78
2018-06-24T05:59:20.452Z,20.75
2018-06-24T06:00:20.479Z,20.78
2018-06-24T06:01:20.535Z,20.77
2018-06-24T06:02:20.342Z,20.77
2018-06-24T06:03:20.459Z,20.78
2018-06-24T06:04:20.496Z,20.77
2018-06-24T06:05:20.349Z,20.74
2018-06-24T06:06:20.395Z,20.78
2018-06-24T06:07:20.519Z,20.78
2018-06-24T06:08:20.550Z,20.8
2018-06-24T06:09:20.391Z,20.78
2018-06-24T06:10:21.418Z,20.77
2018-06-24T06:11:20.511Z,20.77
2018-06-24T06:12:20.410Z,20.78
2018-06-24T06:13:20.433Z,20.78
2018-06-24T06:14:20.284Z,20.8
2018-06-24T06:15:20.303Z,20.78
2018-06-24T06:16:20.373Z,20.8
2018-06-24T06:17:20.345Z,20.77
2018-06-24T06:18:20.351Z,20.77
2018-06-24T06:19:20.495Z,20.8
2018-06-24T06:20:20.440Z,20.8
2018-06-24T06:21:20.381Z,20.78
2018-06-24T06:22:20.437Z,20.78
2018-06-24T06:23:20.308Z,20.78
2018-06-24T06:24:20.503Z,20.78
2018-06-24T06:25:20.507Z,20.77
2018-06-24T06:26:20.282Z,20.77
2018-06-24T06:27:20.365Z,20.78
2018-06-24T06:28:20.301Z,20.8
2018-06-24T06:29:20.469Z,20.78
2018-06-24T06:30:21.921Z,20.77
2018-06-24T06:31:20.288Z,20.77
2018-06-24T06:32:20.401Z,20.77
2018-06-24T06:33:20.420Z,20.78
2018-06-24T06:34:20.531Z,20.75
2018-06-24T06:35:20.366Z,20.75
2018-06-24T06:36:20.376Z,20.77
2018-06-24T06:37:20.439Z,20.77
2018-06-24T06:38:20.501Z,20.78
2018-06-24T06:39:20.436Z,20.8
2018-06-24T06:40:20.508Z,20.78
2018-06-24T06:41:20.296Z,20.78
2018-06-24T06:42:20.413Z,20.8
2018-06-24T06:43:20.378Z,20.78
2018-06-24T06:44:20.382Z,20.77
2018-06-24T06:45:21.792Z,20.77
2018-06-24T06:46:20.430Z,20.77
2018-06-24T06:47:20.379Z,20.75
2018-06-24T06:48:20.453Z,20.78
2018-06-24T06:49:20.407Z,20.75
2018-06-24T06:50:20.374Z,20.78
2018-06-24T06:51:20.376Z,20.77
2018-06-24T06:52:20.475Z,20.75
2018-06-24T06:53:20.380Z,20.77
2018-06-24T06:54:20.456Z,20.75
2018-06-24T06:55:20.519Z,20.77
2018-06-24T06:56:20.383Z,20.75
2018-06-24T06:57:20.392Z,20.78
2018-06-24T06:58:20.480Z,20.75
2018-06-24T06:59:20.402Z,20.77
2018-06-24T07:00:20.419Z,20.8
2018-06-24T07:01:20.747Z,20.75
2018-06-24T07:02:20.763Z,20.74
2018-06-24T07:03:20.915Z,20.59
2018-06-24T07:04:20.437Z,20.47
2018-06-24T07:05:20.752Z,20.36
2018-06-24T07:06:20.659Z,20.29
2018-06-24T07:07:20.516Z,20.26
2018-06-24T07:08:20.519Z,20.2
2018-06-24T07:09:20.497Z,20.15
2018-06-24T07:10:20.658Z,20.15
2018-06-24T07:11:20.515Z,20.08
2018-06-24T07:12:20.490Z,20.04
2018-06-24T07:13:20.809Z,20.01
2018-06-24T07:14:21.463Z,19.98
2018-06-24T07:15:20.507Z,19.96
2018-06-24T07:16:20.518Z,19.93
2018-06-24T07:17:20.452Z,19.89
2018-06-24T07:18:20.535Z,19.85
2018-06-24T07:19:20.527Z,19.91
2018-06-24T07:20:20.480Z,19.89
2018-06-24T07:21:20.551Z,19.89
2018-06-24T07:22:20.519Z,19.82
2018-06-24T07:23:20.690Z,19.82
2018-06-24T07:24:20.568Z,19.84
2018-06-24T07:25:20.575Z,19.88
2018-06-24T07:26:20.579Z,19.84
2018-06-24T07:27:20.601Z,19.81
2018-06-24T07:28:20.558Z,19.81
2018-06-24T07:29:20.788Z,19.82
2018-06-24T07:30:20.598Z,19.86
2018-06-24T07:31:20.536Z,19.93
2018-06-24T07:32:20.611Z,19.98
2018-06-24T07:33:21.264Z,19.95
2018-06-24T07:34:20.718Z,19.99
2018-06-24T07:35:20.573Z,20.02
2018-06-24T07:36:20.605Z,20.05
2018-06-24T07:37:20.537Z,20.02
2018-06-24T07:38:20.543Z,20.05
2018-06-24T07:39:21.116Z,20.05
2018-06-24T07:40:20.543Z,20.07
2018-06-24T07:41:20.613Z,20.11
2018-06-24T07:42:20.640Z,20.11
2018-06-24T07:43:20.619Z,20.11
2018-06-24T07:44:20.539Z,20.13
2018-06-24T07:45:20.666Z,20.13
2018-06-24T07:46:20.636Z,20.15
2018-06-24T07:47:20.640Z,20.15
2018-06-24T07:48:20.654Z,20.13
2018-06-24T07:49:20.628Z,20.15
2018-06-24T07:50:21.309Z,20.16
2018-06-24T07:51:20.716Z,20.22
2018-06-24T07:52:20.671Z,20.2
2018-06-24T07:53:20.613Z,20.19
2018-06-24T07:54:20.719Z,20.19
2018-06-24T07:55:20.672Z,20.16
2018-06-24T07:56:20.610Z,20.16
2018-06-24T07:57:21.180Z,20.2
2018-06-24T07:58:20.713Z,20.19
2018-06-24T07:59:20.430Z,20.22
2018-06-24T08:00:20.686Z,20.25
2018-06-24T08:01:20.754Z,20.19
2018-06-24T08:02:20.258Z,20.22
2018-06-24T08:03:21.106Z,20.25
2018-06-24T08:04:20.841Z,20.2
2018-06-24T08:05:21.346Z,20.23
2018-06-24T08:06:20.346Z,20.23
2018-06-24T08:07:20.706Z,20.19
2018-06-24T08:08:20.543Z,20.19
2018-06-24T08:09:20.840Z,20.2
2018-06-24T08:10:20.891Z,20.23
2018-06-24T08:11:20.874Z,20.27
2018-06-24T08:12:20.744Z,20.22
2018-06-24T08:13:20.349Z,20.23
2018-06-24T08:14:20.390Z,20.26
2018-06-24T08:15:20.748Z,20.23
2018-06-24T08:16:20.320Z,20.25
2018-06-24T08:17:20.590Z,20.19
2018-06-24T08:18:20.299Z,20.16
2018-06-24T08:19:20.590Z,20.22
2018-06-24T08:20:20.347Z,20.22
2018-06-24T08:21:20.355Z,20.22
2018-06-24T08:22:20.383Z,20.16
2018-06-24T08:23:20.350Z,20.19
2018-06-24T08:24:20.331Z,20.15
2018-06-24T08:25:20.220Z,20.16
2018-06-24T08:26:20.434Z,20.23
2018-06-24T08:27:20.596Z,20.2
2018-06-24T08:28:20.407Z,20.22
2018-06-24T08:29:20.307Z,20.23
2018-06-24T08:30:20.469Z,20.25
2018-06-24T08:31:20.385Z,20.23
2018-06-24T08:32:20.429Z,20.23
2018-06-24T08:33:20.699Z,20.22
2018-06-24T08:34:20.428Z,20.27
2018-06-24T08:35:20.405Z,20.22
2018-06-24T08:36:20.326Z,20.25
2018-06-24T08:37:20.464Z,20.25
2018-06-24T08:38:45.459Z,20.26
2018-06-24T08:39:20.738Z,20.23
2018-06-24T08:40:20.336Z,20.27
2018-06-24T08:41:20.406Z,20.27
2018-06-24T08:42:20.287Z,20.27
2018-06-24T08:43:20.614Z,20.29
2018-06-24T08:44:20.458Z,20.26
2018-06-24T08:45:20.554Z,20.25
2018-06-24T08:46:20.556Z,20.25
2018-06-24T08:47:20.835Z,20.2
2018-06-24T08:48:20.484Z,20.22
2018-06-24T08:49:20.443Z,20.26
2018-06-24T08:50:20.362Z,20.23
2018-06-24T08:51:20.495Z,20.22
2018-06-24T08:52:20.406Z,20.25
2018-06-24T08:53:20.280Z,20.25
2018-06-24T08:54:21.003Z,20.25
2018-06-24T08:55:20.635Z,20.26
2018-06-24T08:56:20.301Z,20.26
2018-06-24T08:57:20.522Z,20.27
2018-06-24T08:58:20.526Z,20.22
2018-06-24T08:59:20.337Z,20.25
2018-06-24T09:00:20.365Z,20.27
2018-06-24T09:01:20.494Z,20.27
2018-06-24T09:02:20.448Z,20.26
2018-06-24T09:03:20.555Z,20.29
2018-06-24T09:04:20.587Z,20.27
2018-06-24T09:05:20.437Z,20.26
2018-06-24T09:06:20.410Z,20.27
2018-06-24T09:07:20.513Z,20.27
2018-06-24T09:08:20.329Z,20.32
2018-06-24T09:09:20.443Z,20.3
2018-06-24T09:10:20.360Z,20.29
2018-06-24T09:11:20.356Z,20.33
2018-06-24T09:12:20.420Z,20.27
2018-06-24T09:13:20.430Z,20.27
2018-06-24T09:14:20.584Z,20.27
2018-06-24T09:15:20.308Z,20.27
2018-06-24T09:16:20.379Z,20.3
2018-06-24T09:17:20.332Z,20.3
2018-06-24T09:18:20.543Z,20.32
2018-06-24T09:19:20.334Z,20.3
2018-06-24T09:20:20.484Z,20.29
2018-06-24T09:21:20.961Z,20.33
2018-06-24T09:22:20.575Z,20.33
2018-06-24T09:23:20.426Z,20.35
2018-06-24T09:24:20.349Z,20.32
2018-06-24T09:25:20.640Z,20.3
2018-06-24T09:26:20.783Z,20.35
2018-06-24T09:27:20.501Z,20.35
2018-06-24T09:28:20.376Z,20.35
2018-06-24T09:29:20.457Z,20.37
2018-06-24T09:30:20.388Z,20.36
2018-06-24T09:31:20.460Z,20.36
2018-06-24T09:32:20.422Z,20.3
2018-06-24T09:33:20.426Z,20.33
2018-06-24T09:34:20.584Z,20.32
2018-06-24T09:35:20.476Z,20.35
2018-06-24T09:36:20.475Z,20.3
2018-06-24T09:37:20.448Z,20.32
2018-06-24T09:38:20.544Z,20.35
2018-06-24T09:39:20.484Z,20.3
2018-06-24T09:40:20.457Z,20.3
2018-06-24T09:41:20.518Z,20.32
2018-06-24T09:42:20.619Z,20.36
2018-06-24T09:43:20.668Z,20.36
2018-06-24T09:44:20.437Z,20.37
2018-06-24T09:45:20.494Z,20.37
2018-06-24T09:46:20.613Z,20.4
2018-06-24T09:47:20.518Z,20.4
2018-06-24T09:48:20.510Z,20.44
2018-06-24T09:49:20.518Z,20.46
2018-06-24T09:50:20.511Z,20.46
2018-06-24T09:51:20.552Z,20.5
2018-06-24T09:52:20.494Z,20.5
2018-06-24T09:53:20.535Z,20.54
2018-06-24T09:54:20.548Z,20.54
2018-06-24T09:55:20.720Z,20.54
2018-06-24T09:56:20.663Z,20.57
2018-06-24T09:57:20.589Z,20.6
2018-06-24T09:58:20.573Z,20.61
2018-06-24T09:59:20.588Z,20.61
2018-06-24T10:00:20.587Z,20.63
2018-06-24T10:01:20.531Z,20.6
2018-06-24T10:02:20.623Z,20.63
2018-06-24T10:03:20.888Z,20.63
2018-06-24T10:04:20.500Z,20.63
2018-06-24T10:05:20.614Z,20.68
2018-06-24T10:06:20.645Z,20.64
2018-06-24T10:07:20.512Z,20.67
2018-06-24T10:08:20.611Z,20.66
2018-06-24T10:09:20.563Z,20.64
2018-06-24T10:10:20.626Z,20.66
2018-06-24T10:11:20.557Z,20.67
2018-06-24T10:12:20.594Z,20.67
2018-06-24T10:13:20.540Z,20.7
2018-06-24T10:14:20.657Z,20.74
2018-06-24T10:15:20.553Z,20.75
2018-06-24T10:16:20.573Z,20.75
2018-06-24T10:17:20.657Z,20.75
2018-06-24T10:18:20.625Z,20.75
2018-06-24T10:19:20.796Z,20.8
2018-06-24T10:20:22.065Z,20.78
2018-06-24T10:21:20.172Z,20.8
2018-06-24T10:22:20.646Z,20.8
2018-06-24T10:23:20.594Z,20.78
2018-06-24T10:24:20.628Z,20.8
2018-06-24T10:25:20.784Z,20.81
2018-06-24T10:26:20.419Z,20.81
2018-06-24T10:27:20.677Z,20.8
2018-06-24T10:28:20.679Z,20.81
2018-06-24T10:29:20.969Z,20.8
2018-06-24T10:30:20.216Z,20.82
2018-06-24T10:31:20.697Z,20.82
2018-06-24T10:32:20.822Z,20.84
2018-06-24T10:33:20.682Z,20.82
2018-06-24T10:34:20.732Z,20.84
2018-06-24T10:35:20.844Z,20.84
2018-06-24T10:36:20.495Z,20.82
2018-06-24T10:37:20.278Z,20.85
2018-06-24T10:38:20.715Z,20.82
2018-06-24T10:39:20.263Z,20.84
2018-06-24T10:40:21.041Z,20.87
2018-06-24T10:41:20.255Z,20.85
2018-06-24T10:42:20.312Z,20.87
2018-06-24T10:43:20.874Z,20.84
2018-06-24T10:44:20.273Z,20.82
2018-06-24T10:45:20.716Z,20.87
2018-06-24T10:46:20.565Z,20.84
2018-06-24T10:47:20.727Z,20.88
2018-06-24T10:48:20.341Z,20.87
2018-06-24T10:49:20.327Z,20.89
2018-06-24T10:50:20.211Z,20.91
2018-06-24T10:51:20.567Z,20.92
2018-06-24T10:52:20.280Z,20.91
2018-06-24T10:53:20.504Z,20.91
2018-06-24T10:54:20.400Z,20.92
2018-06-24T10:55:20.588Z,20.92
2018-06-24T10:56:20.286Z,20.92
2018-06-24T10:57:20.385Z,20.95
2018-06-24T10:58:20.834Z,20.95
2018-06-24T10:59:20.165Z,20.97
2018-06-24T11:00:20.258Z,20.94
2018-06-24T11:01:20.372Z,20.98
2018-06-24T11:02:21.325Z,20.95
2018-06-24T11:03:20.617Z,20.95
2018-06-24T11:04:20.369Z,20.94
2018-06-24T11:05:20.216Z,20.97
2018-06-24T11:06:20.373Z,20.98
2018-06-24T11:07:20.579Z,20.97
2018-06-24T11:08:20.228Z,20.99
2018-06-24T11:09:20.343Z,20.99
2018-06-24T11:10:20.400Z,20.98
2018-06-24T11:11:20.500Z,20.99
2018-06-24T11:12:20.454Z,20.99
2018-06-24T11:13:20.597Z,21.01
2018-06-24T11:14:20.376Z,21.01
2018-06-24T11:15:20.458Z,21.01
2018-06-24T11:16:20.272Z,21.02
2018-06-24T11:17:20.242Z,21.01
2018-06-24T11:18:20.409Z,20.99
2018-06-24T11:19:20.313Z,21.02
2018-06-24T11:20:20.212Z,21.01
2018-06-24T11:21:20.244Z,21.03
2018-06-24T11:22:20.334Z,21.05
2018-06-24T11:23:20.361Z,21.05
2018-06-24T11:24:20.420Z,21.02
2018-06-24T11:25:20.371Z,21.03
2018-06-24T11:26:20.183Z,21.03
2018-06-24T11:27:20.318Z,21.03
2018-06-24T11:28:20.337Z,21.08
2018-06-24T11:29:20.229Z,21.03
2018-06-24T11:30:20.389Z,21.03
2018-06-24T11:31:20.200Z,21.03
2018-06-24T11:32:20.395Z,21.01
2018-06-24T11:33:20.409Z,21.01
2018-06-24T11:34:20.312Z,20.99
2018-06-24T11:35:20.241Z,20.99
2018-06-24T11:36:20.454Z,20.99
2018-06-24T11:37:20.528Z,20.99
2018-06-24T11:38:20.811Z,20.99
2018-06-24T11:39:20.433Z,21.01
2018-06-24T11:40:20.487Z,21.02
2018-06-24T11:41:20.556Z,20.99
2018-06-24T11:42:20.423Z,21.01
2018-06-24T11:43:20.407Z,21.02
2018-06-24T11:44:20.191Z,20.99
2018-06-24T11:45:20.456Z,20.98
2018-06-24T11:46:20.421Z,20.99
2018-06-24T11:47:20.454Z,21.01
2018-06-24T11:48:20.292Z,20.97
2018-06-24T11:49:20.516Z,20.97
2018-06-24T11:50:20.490Z,20.98
2018-06-24T11:51:20.707Z,20.98
2018-06-24T11:52:20.505Z,20.99
2018-06-24T11:53:20.287Z,20.97
2018-06-24T11:54:20.498Z,20.97
2018-06-24T11:55:20.303Z,20.98
2018-06-24T11:56:20.457Z,20.97
2018-06-24T11:57:20.364Z,20.98
2018-06-24T11:58:20.450Z,20.95
2018-06-24T11:59:20.353Z,20.98
2018-06-24T12:00:20.370Z,20.94
2018-06-24T12:01:20.409Z,20.94
2018-06-24T12:02:20.378Z,20.92
2018-06-24T12:03:20.483Z,20.92
2018-06-24T12:04:20.345Z,20.91
2018-06-24T12:05:20.558Z,20.92
2018-06-24T12:06:20.368Z,20.94
2018-06-24T12:07:20.359Z,20.94
2018-06-24T12:08:20.408Z,20.94
2018-06-24T12:09:20.422Z,20.92
2018-06-24T12:10:20.406Z,20.95
2018-06-24T12:11:20.435Z,20.98
2018-06-24T12:12:20.359Z,20.95
2018-06-24T12:13:20.382Z,20.95
2018-06-24T12:14:20.359Z,20.97
2018-06-24T12:15:20.617Z,20.95
2018-06-24T12:16:20.438Z,20.97
2018-06-24T12:17:20.450Z,20.99
2018-06-24T12:18:21.360Z,20.99
2018-06-24T12:19:20.454Z,20.99
2018-06-24T12:20:20.351Z,21.01
2018-06-24T12:21:20.471Z,21.05
2018-06-24T12:22:20.392Z,21.02
2018-06-24T12:23:20.489Z,21.03
2018-06-24T12:24:20.330Z,21.03
2018-06-24T12:25:20.358Z,21.03
2018-06-24T12:26:20.415Z,21.06
2018-06-24T12:27:20.269Z,21.05
2018-06-24T12:28:20.499Z,21.05
2018-06-24T12:29:20.380Z,21.01
2018-06-24T12:30:20.243Z,21.05
2018-06-24T12:31:20.185Z,21.01
2018-06-24T12:32:20.458Z,21.02
2018-06-24T12:33:20.277Z,21.02
2018-06-24T12:34:20.218Z,21.03
2018-06-24T12:35:20.407Z,21.05
2018-06-24T12:36:20.403Z,21.05
2018-06-24T12:37:20.598Z,21.03
2018-06-24T12:38:20.445Z,21.03
2018-06-24T12:39:20.214Z,21.03
2018-06-24T12:40:20.198Z,21.11
2018-06-24T12:41:20.421Z,21.11
2018-06-24T12:42:20.528Z,21.08
2018-06-24T12:43:20.747Z,21.05
2018-06-24T12:44:20.495Z,21.09
2018-06-24T12:45:20.448Z,21.12
2018-06-24T12:46:20.663Z,21.08
2018-06-24T12:47:20.338Z,21.12
2018-06-24T12:48:20.248Z,21.11
2018-06-24T12:49:20.163Z,21.12
2018-06-24T12:50:20.386Z,21.14
2018-06-24T12:51:20.414Z,21.14
2018-06-24T12:52:20.353Z,21.15
2018-06-24T12:53:20.310Z,21.16
2018-06-24T12:54:20.496Z,21.16